createdAt,value
2022-11-28T00:01:45.051Z,101291.33
2022-11-28T00:06:51.210Z,101289.03
2022-11-28T00:11:54.141Z,101287.92
2022-11-28T00:16:56.906Z,101286.81
2022-11-28T00:21:59.808Z,101289.58
2022-11-28T00:27:02.603Z,101285.66
2022-11-28T00:32:06.246Z,101286.44
2022-11-28T00:37:09.060Z,101288.18
2022-11-28T00:42:11.911Z,101280.02
2022-11-28T00:47:16.159Z,101278.27
2022-11-28T00:52:18.953Z,101275.52
2022-11-28T00:57:21.709Z,101273.68
2022-11-28T01:02:24.648Z,101274.02
2022-11-28T01:07:30.832Z,101274.48
2022-11-28T01:12:33.692Z,101270.38
2022-11-28T01:17:36.809Z,101267.84
2022-11-28T01:22:39.911Z,101264.58
2022-11-28T01:27:42.677Z,101254.93
2022-11-28T01:32:45.461Z,101248.91
2022-11-28T01:37:48.195Z,101244.45
2022-11-28T01:42:51.050Z,101239.45
2022-11-28T01:47:57.784Z,101236.91
2022-11-28T01:53:04.528Z,101231.49
2022-11-28T01:58:07.313Z,101227.16
2022-11-28T02:03:17.856Z,101228.06
2022-11-28T02:08:20.609Z,101222.09
2022-11-28T02:13:49.185Z,101217.36
2022-11-28T02:18:55.787Z,101213.25
2022-11-28T02:24:11.935Z,101209.80
2022-11-28T02:29:23.700Z,101206.23
2022-11-28T02:34:32.629Z,101202.66
2022-11-28T02:40:01.070Z,101200.77
2022-11-28T02:45:13.177Z,101189.77
2022-11-28T02:50:15.944Z,101183.77
2022-11-28T02:55:20.389Z,101177.39
2022-11-28T03:00:24.204Z,101173.42
2022-11-28T03:05:46.429Z,101167.70
2022-11-28T03:10:55.230Z,101166.62
2022-11-28T03:16:17.891Z,101160.02
2022-11-28T03:21:23.673Z,101160.67
2022-11-28T03:26:51.279Z,101160.96
2022-11-28T03:31:59.283Z,101164.80
2022-11-28T03:37:08.747Z,101169.02
2022-11-28T03:42:17.018Z,101172.83
2022-11-28T03:47:20.310Z,101173.22
2022-11-28T03:52:31.677Z,101176.80
2022-11-28T03:58:13.304Z,101179.83
2022-11-28T04:03:16.132Z,101182.99
2022-11-28T04:08:25.229Z,101179.17
2022-11-28T04:13:47.089Z,101179.24
2022-11-28T04:19:25.534Z,101181.44
2022-11-28T04:24:42.361Z,101177.13
2022-11-28T04:29:47.883Z,101175.77
2022-11-28T04:34:55.342Z,101172.07
2022-11-28T04:40:00.578Z,101169.77
2022-11-28T04:45:06.937Z,101172.58
2022-11-28T04:50:10.462Z,101169.97
2022-11-28T04:55:20.722Z,101168.39
2022-11-28T05:00:23.463Z,101168.91
2022-11-28T05:05:28.497Z,101170.08
2022-11-28T05:10:31.300Z,101171.91
2022-11-28T05:15:34.155Z,101165.79
2022-11-28T05:20:38.454Z,101166.48
2022-11-28T05:25:41.404Z,101171.50
2022-11-28T05:30:44.169Z,101182.58
2022-11-28T05:35:46.934Z,101183.31
2022-11-28T05:40:49.735Z,101184.63
2022-11-28T05:45:53.937Z,101179.66
2022-11-28T05:50:56.705Z,101176.48
2022-11-28T05:55:59.896Z,101172.64
2022-11-28T06:01:18.115Z,101173.73
2022-11-28T06:06:22.297Z,101174.60
2022-11-28T06:11:27.321Z,101175.27
2022-11-28T06:16:31.823Z,101176.84
2022-11-28T06:21:34.943Z,101179.13
2022-11-28T06:26:37.814Z,101175.84
2022-11-28T06:31:40.724Z,101176.85
2022-11-28T06:36:45.247Z,101172.09
2022-11-28T06:41:48.526Z,101171.31
2022-11-28T06:46:51.514Z,101171.91
2022-11-28T06:51:54.384Z,101180.69
2022-11-28T06:56:57.207Z,101181.60
2022-11-28T07:02:07.778Z,101179.42
2022-11-28T07:07:16.153Z,101180.14
2022-11-28T07:12:19.584Z,101181.06
2022-11-28T07:17:23.200Z,101181.85
2022-11-28T07:22:26.123Z,101184.15
2022-11-28T07:27:29.048Z,101177.52
2022-11-28T07:32:31.894Z,101170.55
2022-11-28T07:37:38.111Z,101173.55
2022-11-28T07:42:45.372Z,101174.29
2022-11-28T07:47:48.746Z,101175.42
2022-11-28T07:52:52.248Z,101170.22
2022-11-28T07:58:01.349Z,101165.05
2022-11-28T08:03:18.092Z,101159.45
2022-11-28T08:08:21.269Z,101158.65
2022-11-28T08:13:24.069Z,101152.98
2022-11-28T08:18:28.160Z,101148.79
2022-11-28T08:23:33.578Z,101145.48
2022-11-28T08:28:37.137Z,101149.59
2022-11-28T08:33:40.843Z,101148.14
2022-11-28T08:38:53.455Z,101148.27
2022-11-28T08:44:06.234Z,101148.01
2022-11-28T08:49:09.161Z,101151.45
2022-11-28T08:54:12.594Z,101147.70
2022-11-28T08:59:16.054Z,101147.06
2022-11-28T09:04:18.982Z,101148.56
2022-11-28T09:09:22.080Z,101145.17
2022-11-28T09:14:27.089Z,101137.73
2022-11-28T09:19:31.810Z,101136.61
2022-11-28T09:24:34.736Z,101137.34
2022-11-28T09:29:37.544Z,101136.10
2022-11-28T09:34:40.457Z,101134.27
2022-11-28T09:40:04.865Z,101128.66
2022-11-28T09:45:26.841Z,101129.01
2022-11-28T09:50:36.514Z,101126.13
2022-11-28T09:55:48.316Z,101123.17
2022-11-28T10:01:05.623Z,101120.88
2022-11-28T10:06:23.491Z,101117.55
2022-11-28T10:11:50.620Z,101107.98
2022-11-28T10:17:04.378Z,101101.45
2022-11-28T10:22:13.628Z,101095.88
2022-11-28T10:27:21.291Z,101094.35
2022-11-28T10:32:40.675Z,101089.81
2022-11-28T10:37:45.777Z,101085.23
2022-11-28T10:42:52.091Z,101080.19
2022-11-28T10:48:07.429Z,101084.95
2022-11-28T10:53:29.923Z,101079.09
2022-11-28T10:58:37.316Z,101075.46
2022-11-28T11:03:41.065Z,101074.66
2022-11-28T11:08:45.698Z,101068.89
2022-11-28T11:14:07.106Z,101066.60
2022-11-28T11:19:23.579Z,101066.98
2022-11-28T11:24:26.722Z,101065.27
2022-11-28T11:29:32.870Z,101069.23
2022-11-28T11:34:43.124Z,101069.14
2022-11-28T11:39:52.249Z,101067.98
2022-11-28T11:44:56.548Z,101061.87
2022-11-28T11:50:05.452Z,101064.30
2022-11-28T11:55:16.859Z,101062.41
2022-11-28T12:00:27.785Z,101059.33
2022-11-28T12:05:59.375Z,101058.84
2022-11-28T12:11:23.620Z,101062.86
2022-11-28T12:16:52.308Z,101062.63
2022-11-28T12:22:32.041Z,101062.98
2022-11-28T12:27:52.710Z,101058.96
2022-11-28T12:33:13.954Z,101060.52
2022-11-28T12:38:31.322Z,101057.57
2022-11-28T12:43:53.019Z,101056.41
2022-11-28T12:49:25.826Z,101052.20
2022-11-28T12:55:01.485Z,101048.48
2022-11-28T13:00:09.564Z,101052.88
2022-11-28T13:05:31.644Z,101053.71
2022-11-28T13:11:18.716Z,101058.03
2022-11-28T13:16:49.184Z,101055.95
2022-11-28T13:22:23.673Z,101048.77
2022-11-28T13:28:00.976Z,101049.19
2022-11-28T13:33:28.418Z,101048.86
2022-11-28T13:39:13.403Z,101049.88
2022-11-28T13:44:24.366Z,101041.98
2022-11-28T13:49:29.770Z,101049.30
2022-11-28T13:54:32.731Z,101045.80
2022-11-28T13:59:37.289Z,101048.02
2022-11-28T14:04:44.437Z,101046.58
2022-11-28T14:09:53.791Z,101041.38
2022-11-28T14:15:22.732Z,101041.48
2022-11-28T14:20:43.052Z,101039.94
2022-11-28T14:25:48.666Z,101033.46
2022-11-28T14:31:00.216Z,101037.37
2022-11-28T14:36:29.632Z,101040.07
2022-11-28T14:41:32.696Z,101043.02
2022-11-28T14:46:35.829Z,101046.39
2022-11-28T14:51:47.977Z,101044.08
2022-11-28T14:56:56.675Z,101043.20
2022-11-28T15:02:11.207Z,101042.86
2022-11-28T15:07:59.636Z,101041.98
2022-11-28T15:13:05.322Z,101036.81
2022-11-28T15:18:11.582Z,101040.04
2022-11-28T15:23:25.714Z,101040.66
2022-11-28T15:28:32.335Z,101046.13
2022-11-28T15:33:35.233Z,101048.85
2022-11-28T15:38:42.088Z,101053.54
2022-11-28T15:43:45.947Z,101051.57
2022-11-28T15:48:51.262Z,101042.71
2022-11-28T15:53:55.406Z,101041.91
2022-11-28T15:58:58.220Z,101042.85
2022-11-28T16:04:15.503Z,101046.14
2022-11-28T16:09:18.294Z,101044.25
2022-11-28T16:14:27.206Z,101041.48
2022-11-28T16:19:34.698Z,101043.92
2022-11-28T16:24:55.575Z,101043.21
2022-11-28T16:29:58.617Z,101044.06
2022-11-28T16:35:03.451Z,101046.48
2022-11-28T16:40:06.738Z,101041.98
2022-11-28T16:45:20.715Z,101046.98
2022-11-28T16:50:25.357Z,101045.17
2022-11-28T16:55:32.363Z,101049.56
2022-11-28T17:00:35.795Z,101047.38
2022-11-28T17:05:38.629Z,101047.66
2022-11-28T17:10:41.644Z,101047.75
2022-11-28T17:15:44.592Z,101050.65
2022-11-28T17:20:47.718Z,101047.60
2022-11-28T17:25:53.234Z,101047.15
2022-11-28T17:30:56.115Z,101042.77
2022-11-28T17:36:00.478Z,101044.91
2022-11-28T17:41:03.560Z,101043.52
2022-11-28T17:46:06.633Z,101041.48
2022-11-28T17:51:10.577Z,101040.61
2022-11-28T17:56:13.700Z,101034.32
2022-11-28T18:01:26.889Z,101036.67
2022-11-28T18:06:30.074Z,101039.54
2022-11-28T18:11:33.024Z,101042.54
2022-11-28T18:16:36.241Z,101040.74
2022-11-28T18:21:39.380Z,101046.40
2022-11-28T18:26:42.202Z,101046.05
2022-11-28T18:31:45.181Z,101044.87
2022-11-28T18:36:47.988Z,101039.87
2022-11-28T18:41:50.919Z,101042.60
2022-11-28T18:46:53.749Z,101049.37
2022-11-28T18:51:57.056Z,101046.98
2022-11-28T18:57:00.222Z,101049.69
2022-11-28T19:02:03.191Z,101052.61
2022-11-28T19:07:06.075Z,101052.77
2022-11-28T19:12:08.868Z,101054.52
2022-11-28T19:17:12.267Z,101057.98
2022-11-28T19:22:15.040Z,101058.46
2022-11-28T19:27:18.001Z,101054.10
2022-11-28T19:32:21.346Z,101058.70
2022-11-28T19:37:24.209Z,101063.27
2022-11-28T19:42:27.183Z,101060.60
2022-11-28T19:47:29.989Z,101058.32
2022-11-28T19:52:32.966Z,101061.75
2022-11-28T19:57:37.420Z,101064.53
2022-11-28T20:02:40.436Z,101060.54
2022-11-28T20:07:43.582Z,101063.40
2022-11-28T20:12:46.385Z,101064.08
2022-11-28T20:17:49.377Z,101060.66
2022-11-28T20:22:52.340Z,101062.48
2022-11-28T20:27:55.229Z,101060.29
2022-11-28T20:32:58.037Z,101059.45
2022-11-28T20:38:00.784Z,101063.73
2022-11-28T20:43:03.547Z,101069.52
2022-11-28T20:48:06.396Z,101071.84
2022-11-28T20:53:09.208Z,101069.89
2022-11-28T20:58:12.109Z,101069.54
2022-11-28T21:03:14.903Z,101069.02
2022-11-28T21:08:17.756Z,101066.48
2022-11-28T21:13:20.489Z,101069.46
2022-11-28T21:18:23.291Z,101067.56
2022-11-28T21:23:26.336Z,101072.12
2022-11-28T21:28:29.136Z,101071.56
2022-11-28T21:33:32.049Z,101072.73
2022-11-28T21:38:35.610Z,101075.30
2022-11-28T21:43:39.226Z,101074.77
2022-11-28T21:48:42.397Z,101069.20
2022-11-28T21:53:45.591Z,101066.73
2022-11-28T21:58:48.422Z,101067.98
2022-11-28T22:03:51.319Z,101062.39
2022-11-28T22:08:54.784Z,101062.66
2022-11-28T22:13:57.632Z,101057.98
2022-11-28T22:19:00.836Z,101060.70
2022-11-28T22:24:04.038Z,101060.67
2022-11-28T22:29:07.144Z,101064.45
2022-11-28T22:34:10.259Z,101061.88
2022-11-28T22:39:13.464Z,101056.52
2022-11-28T22:44:16.419Z,101055.98
2022-11-28T22:49:24.663Z,101057.01
2022-11-28T22:54:27.485Z,101049.88
2022-11-28T22:59:34.161Z,101048.20
2022-11-28T23:04:38.494Z,101054.84
2022-11-28T23:09:41.951Z,101052.86
2022-11-28T23:14:48.888Z,101059.03
2022-11-28T23:19:51.900Z,101066.34
2022-11-28T23:24:54.678Z,101057.02
2022-11-28T23:29:57.603Z,101059.09
2022-11-28T23:35:01.183Z,101063.06
2022-11-28T23:40:04.307Z,101060.71
2022-11-28T23:45:07.904Z,101061.43
2022-11-28T23:50:10.953Z,101059.87
2022-11-28T23:55:13.725Z,101060.67
